createdAt,value
2023-01-17T00:00:55.033Z,1.27
2023-01-17T00:06:16.440Z,0.20
2023-01-17T00:11:20.157Z,0.13
2023-01-17T00:16:24.694Z,0.20
2023-01-17T00:21:45.269Z,0.20
2023-01-17T00:27:02.479Z,0.20
2023-01-17T00:32:06.269Z,0.20
2023-01-17T00:37:08.430Z,0.13
2023-01-17T00:42:10.478Z,0.20
2023-01-17T00:47:32.759Z,0.20
2023-01-17T00:52:52.995Z,0.20
2023-01-17T00:58:13.480Z,0.10
2023-01-17T01:03:35.768Z,0.20
2023-01-17T01:08:56.308Z,0.10
2023-01-17T01:14:18.218Z,0.10
2023-01-17T01:19:40.387Z,0.20
2023-01-17T01:25:01.003Z,1.80
2023-01-17T01:30:23.009Z,0.20
2023-01-17T01:35:27.971Z,0.17
2023-01-17T01:40:31.412Z,0.20
2023-01-17T01:45:34.557Z,0.20
2023-01-17T01:50:39.289Z,0.20
2023-01-17T01:55:45.525Z,0.20
2023-01-17T02:00:48.622Z,0.20
2023-01-17T02:05:53.748Z,0.20
2023-01-17T02:10:57.468Z,0.20
2023-01-17T02:16:12.493Z,0.20
2023-01-17T02:21:29.304Z,0.20
2023-01-17T02:26:57.659Z,0.40
2023-01-17T02:32:06.606Z,0.30
2023-01-17T02:37:17.392Z,0.40
2023-01-17T02:42:26.487Z,0.27
2023-01-17T02:47:32.827Z,0.40
2023-01-17T02:52:50.657Z,1.90
2023-01-17T02:58:04.134Z,0.20
2023-01-17T03:03:21.595Z,0.20
2023-01-17T03:08:25.328Z,0.30
2023-01-17T03:13:28.716Z,0.30
2023-01-17T03:18:33.391Z,0.47
2023-01-17T03:23:36.525Z,0.20
2023-01-17T03:28:39.729Z,0.30
2023-01-17T03:33:44.575Z,0.57
2023-01-17T03:38:47.647Z,1.70
2023-01-17T03:43:50.704Z,0.70
2023-01-17T03:48:55.423Z,0.60
2023-01-17T03:53:58.548Z,0.50
2023-01-17T03:59:02.067Z,0.53
2023-01-17T04:04:06.642Z,0.60
2023-01-17T04:09:09.915Z,0.40
2023-01-17T04:14:12.977Z,0.97
2023-01-17T04:19:17.485Z,0.40
2023-01-17T04:24:20.755Z,1.03
2023-01-17T04:29:26.827Z,1.90
2023-01-17T04:34:31.333Z,0.73
2023-01-17T04:39:34.528Z,1.33
2023-01-17T04:44:37.699Z,0.40
2023-01-17T04:49:44.062Z,0.50
2023-01-17T04:54:49.446Z,0.40
2023-01-17T04:59:53.716Z,0.60
2023-01-17T05:04:58.195Z,1.40
2023-01-17T05:10:02.181Z,0.73
2023-01-17T05:15:06.736Z,2.77
2023-01-17T05:20:13.139Z,1.50
2023-01-17T05:25:16.520Z,1.27
2023-01-17T05:30:20.271Z,0.60
2023-01-17T05:35:27.031Z,1.40
2023-01-17T05:40:32.934Z,0.70
2023-01-17T05:45:36.279Z,0.73
2023-01-17T05:50:41.237Z,1.13
2023-01-17T05:55:45.641Z,0.70
2023-01-17T06:00:49.937Z,0.40
2023-01-17T06:05:54.713Z,0.87
2023-01-17T06:11:00.261Z,4.00
2023-01-17T06:16:04.232Z,0.80
2023-01-17T06:21:10.321Z,0.83
2023-01-17T06:26:13.452Z,0.87
2023-01-17T06:31:16.621Z,0.70
2023-01-17T06:36:21.177Z,1.13
2023-01-17T06:41:25.892Z,0.50
2023-01-17T06:46:29.205Z,0.50
2023-01-17T06:51:35.079Z,0.53
2023-01-17T06:56:38.632Z,2.83
2023-01-17T07:01:42.066Z,2.83
2023-01-17T07:06:46.523Z,0.53
2023-01-17T07:11:51.810Z,2.00
2023-01-17T07:16:55.098Z,0.60
2023-01-17T07:21:59.767Z,5.50
2023-01-17T07:27:03.111Z,0.53
2023-01-17T07:32:08.843Z,1.30
2023-01-17T07:37:15.179Z,0.30
2023-01-17T07:42:18.611Z,1.00
2023-01-17T07:47:22.144Z,0.60
2023-01-17T07:52:26.746Z,1.60
2023-01-17T07:57:30.276Z,5.07
2023-01-17T08:02:33.488Z,0.40
2023-01-17T08:07:40.786Z,1.97
2023-01-17T08:12:43.888Z,0.57
2023-01-17T08:17:48.176Z,0.40
2023-01-17T08:22:56.522Z,0.40
2023-01-17T08:28:00.219Z,1.13
2023-01-17T08:33:03.483Z,0.50
2023-01-17T08:38:08.074Z,0.87
2023-01-17T08:43:11.279Z,2.77
2023-01-17T08:48:14.406Z,1.03
2023-01-17T08:53:21.652Z,1.80
2023-01-17T08:58:24.853Z,1.50
2023-01-17T09:03:27.907Z,0.60
2023-01-17T09:08:32.657Z,0.63
2023-01-17T09:13:36.050Z,0.70
2023-01-17T09:18:39.290Z,0.60
2023-01-17T09:23:44.854Z,0.60
2023-01-17T09:28:48.093Z,5.37
2023-01-17T09:33:52.241Z,2.40
2023-01-17T09:38:58.951Z,1.03
2023-01-17T09:44:07.317Z,6.00
2023-01-17T09:49:17.179Z,1.37
2023-01-17T09:54:23.309Z,0.90
2023-01-17T09:59:35.001Z,2.27
2023-01-17T10:05:00.286Z,1.30
2023-01-17T10:10:19.087Z,2.57
2023-01-17T10:15:50.739Z,1.40
2023-01-17T10:21:01.113Z,1.77
2023-01-17T10:26:09.133Z,11.70
2023-01-17T10:31:19.417Z,9.53
2023-01-17T10:36:24.557Z,4.17
2023-01-17T10:41:31.918Z,1.33
2023-01-17T10:46:40.691Z,3.13
2023-01-17T10:52:00.178Z,2.80
2023-01-17T10:57:05.740Z,1.80
2023-01-17T11:02:20.090Z,1.00
2023-01-17T11:07:25.504Z,0.97
2023-01-17T11:12:32.506Z,1.23
2023-01-17T11:17:38.058Z,2.17
2023-01-17T11:22:41.137Z,1.27
2023-01-17T11:27:59.067Z,4.13
2023-01-17T11:33:06.092Z,1.27
2023-01-17T11:38:17.685Z,2.30
2023-01-17T11:43:27.380Z,1.63
2023-01-17T11:48:36.912Z,0.83
2023-01-17T11:53:47.108Z,1.10
2023-01-17T11:58:52.200Z,0.70
2023-01-17T12:04:23.060Z,2.63
2023-01-17T12:09:33.661Z,2.87
2023-01-17T12:14:47.567Z,1.07
2023-01-17T12:20:04.915Z,1.80
2023-01-17T12:25:28.113Z,0.80
2023-01-17T12:30:49.823Z,0.70
2023-01-17T12:35:57.433Z,2.67
2023-01-17T12:41:06.384Z,0.93
2023-01-17T12:46:20.806Z,1.10
2023-01-17T12:51:29.423Z,1.20
2023-01-17T12:56:37.393Z,1.27
2023-01-17T13:01:44.975Z,2.00
2023-01-17T13:06:57.756Z,2.20
2023-01-17T13:12:05.606Z,1.90
2023-01-17T13:17:25.753Z,2.27
2023-01-17T13:22:29.988Z,2.10
2023-01-17T13:28:02.875Z,1.37
2023-01-17T13:33:27.025Z,0.80
2023-01-17T13:38:38.488Z,2.73
2023-01-17T13:44:05.062Z,0.80
2023-01-17T13:49:35.043Z,2.63
2023-01-17T13:54:45.868Z,0.90
2023-01-17T13:59:48.999Z,1.67
2023-01-17T14:05:12.075Z,0.90
2023-01-17T14:10:33.924Z,2.20
2023-01-17T14:15:49.670Z,1.27
2023-01-17T14:21:11.319Z,1.07
2023-01-17T14:26:33.159Z,0.60
2023-01-17T14:31:36.502Z,1.03
2023-01-17T14:36:41.178Z,1.40
2023-01-17T14:41:44.862Z,0.87
2023-01-17T14:46:49.987Z,1.17
2023-01-17T14:52:02.114Z,1.20
2023-01-17T14:57:26.621Z,0.97
2023-01-17T15:02:29.940Z,1.13
2023-01-17T15:07:34.650Z,2.27
2023-01-17T15:12:38.848Z,7.20
2023-01-17T15:17:42.238Z,1.57
2023-01-17T15:22:47.246Z,1.27
2023-01-17T15:27:50.683Z,3.90
2023-01-17T15:32:53.912Z,2.07
2023-01-17T15:37:58.928Z,0.77
2023-01-17T15:43:02.069Z,1.57
2023-01-17T15:48:34.737Z,1.10
2023-01-17T15:53:44.105Z,19.83
2023-01-17T15:58:50.309Z,3.00
2023-01-17T16:03:55.251Z,2.40
2023-01-17T16:09:00.028Z,15.37
2023-01-17T16:14:03.287Z,2.20
2023-01-17T16:19:07.355Z,1.90
2023-01-17T16:24:12.564Z,7.10
2023-01-17T16:29:15.950Z,12.00
2023-01-17T16:34:19.200Z,12.47
2023-01-17T16:39:23.858Z,3.73
2023-01-17T16:44:26.962Z,2.77
2023-01-17T16:49:32.876Z,1.37
2023-01-17T16:54:37.485Z,4.77
2023-01-17T16:59:50.407Z,5.63
2023-01-17T17:04:54.046Z,6.30
2023-01-17T17:09:58.871Z,1.90
2023-01-17T17:15:02.036Z,6.23
2023-01-17T17:20:06.041Z,2.80
2023-01-17T17:25:12.375Z,2.53
2023-01-17T17:30:16.093Z,7.90
2023-01-17T17:35:19.288Z,4.27
2023-01-17T17:40:23.868Z,12.33
2023-01-17T17:45:27.091Z,8.53
2023-01-17T17:50:30.249Z,4.60
2023-01-17T17:55:36.310Z,2.70
2023-01-17T18:00:39.562Z,3.87
2023-01-17T18:05:43.247Z,3.73
2023-01-17T18:10:47.891Z,4.47
2023-01-17T18:15:51.041Z,4.00
2023-01-17T18:20:54.285Z,7.33
2023-01-17T18:25:58.987Z,7.27
2023-01-17T18:31:08.969Z,9.70
2023-01-17T18:36:13.893Z,15.83
2023-01-17T18:41:20.620Z,9.80
2023-01-17T18:46:25.865Z,32.37
2023-01-17T18:51:31.932Z,33.97
2023-01-17T18:56:36.557Z,17.90
2023-01-17T19:01:42.309Z,16.73
2023-01-17T19:06:48.737Z,11.67
2023-01-17T19:11:53.409Z,10.97
2023-01-17T19:16:57.536Z,8.87
2023-01-17T19:22:00.662Z,8.67
2023-01-17T19:27:07.102Z,8.33
2023-01-17T19:32:11.742Z,12.20
2023-01-17T19:37:15.180Z,9.37
2023-01-17T19:42:20.494Z,9.80
2023-01-17T19:47:23.683Z,8.83
2023-01-17T19:52:27.428Z,12.20
2023-01-17T19:57:34.948Z,11.77
2023-01-17T20:02:39.304Z,10.67
2023-01-17T20:07:42.583Z,6.70
2023-01-17T20:12:47.498Z,8.50
2023-01-17T20:17:51.140Z,8.40
2023-01-17T20:22:55.129Z,8.10
2023-01-17T20:28:00.036Z,4.73
2023-01-17T20:33:03.316Z,12.37
2023-01-17T20:38:07.939Z,6.60
2023-01-17T20:43:12.487Z,3.77
2023-01-17T20:48:16.075Z,5.27
2023-01-17T20:53:19.347Z,6.07
2023-01-17T20:58:24.198Z,8.50
2023-01-17T21:03:29.584Z,7.27
2023-01-17T21:08:34.701Z,5.50
2023-01-17T21:13:40.918Z,8.50
2023-01-17T21:18:46.996Z,9.67
2023-01-17T21:23:52.409Z,5.77
2023-01-17T21:29:00.142Z,6.50
2023-01-17T21:34:05.204Z,5.47
2023-01-17T21:39:11.815Z,5.90
2023-01-17T21:44:19.264Z,6.80
2023-01-17T21:49:22.953Z,9.70
2023-01-17T21:54:41.723Z,8.53
2023-01-17T21:59:46.370Z,9.20
2023-01-17T22:04:49.746Z,8.80
2023-01-17T22:09:53.125Z,7.90
2023-01-17T22:14:57.797Z,5.80
2023-01-17T22:20:01.131Z,4.97
2023-01-17T22:25:04.365Z,5.47
2023-01-17T22:30:13.019Z,8.60
2023-01-17T22:35:16.655Z,3.97
2023-01-17T22:40:20.234Z,5.30
2023-01-17T22:45:25.954Z,5.60
2023-01-17T22:50:29.365Z,3.10
2023-01-17T22:55:32.980Z,2.87
2023-01-17T23:00:37.973Z,4.90
2023-01-17T23:05:46.533Z,4.13
2023-01-17T23:11:15.643Z,6.20
2023-01-17T23:16:37.414Z,3.00
2023-01-17T23:21:57.825Z,2.77
2023-01-17T23:27:18.724Z,8.17
2023-01-17T23:32:23.639Z,3.27
2023-01-17T23:37:44.477Z,4.40
2023-01-17T23:43:05.372Z,3.63
2023-01-17T23:48:10.703Z,7.40
2023-01-17T23:53:22.467Z,4.33
2023-01-17T23:58:27.550Z,3.60
